Time;durP1;ratioP1;P1;durP2;ratioP2;P2;SDS_P1;SDS_P2;PMS_P1;PMS_P2;Temp;Humidity;BMP_temperature;BMP_pressure;BME280_temperature;BME280_humidity;BME280_pressure;Samples;Min_cycle;Max_cycle;Signal;HPM_P1;HPM_P2
2022/01/20 00:00:00;;;;;;;18.00;13.95;;;;;;;3.11;79.36;99817.65;1750181;81;21503;-83
2022/01/20 00:02:20;;;;;;;20.70;14.45;;;;;;;3.11;79.32;99799.03;1749657;81;21057;-83
2022/01/20 00:05:03;;;;;;;17.20;13.80;;;;;;;3.10;79.48;99798.57;1751588;81;21770;-84
2022/01/20 00:07:30;;;;;;;19.00;15.48;;;;;;;3.13;79.57;99782.61;1748104;81;21085;-84
2022/01/20 00:26:05;;;;;;;16.32;12.35;;;;;;;2.98;79.80;99728.30;1751540;81;21093;-83
2022/01/20 00:28:41;;;;;;;14.03;10.85;;;;;;;3.09;79.95;99740.00;1751178;81;21089;-83
2022/01/20 00:31:06;;;;;;;12.53;10.68;;;;;;;3.11;79.97;99737.05;1748148;81;21796;-82
2022/01/20 00:33:40;;;;;;;14.03;10.93;;;;;;;3.14;80.08;99733.27;1749968;81;21174;-83
2022/01/20 00:38:37;;;;;;;14.63;11.55;;;;;;;3.20;80.12;99727.00;1751803;81;21049;-82
2022/01/20 00:41:04;;;;;;;14.15;11.30;;;;;;;3.22;80.16;99723.16;1751887;81;21124;-84
2022/01/20 00:43:31;;;;;;;11.73;9.80;;;;;;;3.23;80.10;99719.33;1751704;81;22713;-82
2022/01/20 00:45:58;;;;;;;15.43;11.73;;;;;;;3.26;80.17;99717.24;1751781;81;21150;-82
2022/01/20 00:48:25;;;;;;;12.98;10.48;;;;;;;3.29;80.17;99719.97;1751989;81;21066;-78
2022/01/20 00:50:51;;;;;;;11.43;9.23;;;;;;;3.30;80.09;99711.32;1751847;81;21158;-82
2022/01/20 00:53:18;;;;;;;11.65;9.55;;;;;;;3.30;80.01;99708.33;1751912;81;21738;-82
2022/01/20 00:55:47;;;;;;;8.38;7.35;;;;;;;3.31;79.98;99705.30;1727796;81;22517;-83
2022/01/20 00:58:16;;;;;;;9.38;8.30;;;;;;;3.28;79.92;99695.69;1751767;81;21069;-82
2022/01/20 01:00:43;;;;;;;9.28;7.90;;;;;;;3.26;79.81;99692.11;1751692;81;21634;-83
2022/01/20 01:03:11;;;;;;;10.60;8.60;;;;;;;3.26;79.92;99690.81;1750945;81;21081;-83
2022/01/20 01:05:51;;;;;;;11.30;8.58;;;;;;;3.29;79.91;99681.83;1751590;81;21140;-83
2022/01/20 01:08:07;;;;;;;15.88;9.28;;;;;;;3.31;79.90;99668.89;1749616;81;23180;-83
2022/01/20 01:10:37;;;;;;;10.48;7.12;;;;;;;3.33;79.79;99669.83;1751694;81;21018;-83
2022/01/20 01:13:13;;;;;;;12.95;9.25;;;;;;;3.37;79.81;99666.50;1752726;81;21060;-83
2022/01/20 01:15:45;;;;;;;12.82;8.38;;;;;;;3.42;79.69;99662.79;1686829;85;21633;-83
2022/01/20 01:23:26;;;;;;;34.40;20.37;;;;;;;3.52;79.15;99653.59;1691801;84;21540;-84
2022/01/20 01:25:55;;;;;;;23.73;12.70;;;;;;;3.46;78.79;99660.34;1691959;84;21115;-84
2022/01/20 01:28:24;;;;;;;27.65;9.45;;;;;;;3.38;78.54;99669.59;1692090;84;21332;-85
2022/01/20 01:33:39;;;;;;;15.53;5.40;;;;;;;3.26;78.28;99669.12;1663460;84;21077;-83
2022/01/20 01:36:11;;;;;;;18.42;6.60;;;;;;;3.25;78.18;99664.77;1689351;83;21170;-85
2022/01/20 01:38:36;;;;;;;32.60;15.13;;;;;;;3.21;78.01;99659.88;1691669;84;21046;-83
2022/01/20 01:41:16;;;;;;;20.77;8.50;;;;;;;3.16;77.85;99647.53;1692219;84;21159;-83
2022/01/20 01:43:48;;;;;;;23.32;9.63;;;;;;;3.13;77.88;99654.78;1717464;82;21034;-85
2022/01/20 01:46:15;;;;;;;18.87;8.75;;;;;;;3.18;77.96;99632.87;1692017;84;21694;-84
2022/01/20 01:48:46;;;;;;;23.40;10.45;;;;;;;3.24;77.97;99642.19;1716897;82;21693;-84
2022/01/20 01:51:15;;;;;;;22.52;9.50;;;;;;;3.31;77.94;99664.98;1691717;84;21085;-83
2022/01/20 01:53:44;;;;;;;24.75;9.10;;;;;;;3.38;77.87;99665.69;1717960;83;21085;-84
2022/01/20 01:56:10;;;;;;;25.17;7.42;;;;;;;3.41;78.07;99659.70;1692162;83;21052;-84
2022/01/20 01:58:39;;;;;;;21.48;7.67;;;;;;;3.38;78.25;99662.18;1717551;82;21868;-83
2022/01/20 02:01:09;;;;;;;19.87;7.20;;;;;;;3.33;78.34;99652.05;1663035;84;21584;-83
2022/01/20 02:03:44;;;;;;;13.90;4.92;;;;;;;3.22;78.08;99652.95;1717610;83;21094;-84
2022/01/20 02:19:48;;;;;;;19.55;5.15;;;;;;;2.99;77.91;99644.30;1730033;81;21105;-82
2022/01/20 02:22:14;;;;;;;33.20;12.80;;;;;;;3.00;77.76;99644.76;1730362;81;22260;-82
2022/01/20 02:24:41;;;;;;;21.45;7.45;;;;;;;2.95;77.39;99632.00;1754125;81;22768;-83
2022/01/20 02:27:08;;;;;;;25.88;10.93;;;;;;;2.92;77.30;99618.48;1726139;82;21049;-83
2022/01/20 02:29:34;;;;;;;20.35;6.58;;;;;;;2.90;76.87;99611.05;1726007;83;21077;-83
2022/01/20 02:32:01;;;;;;;22.27;6.78;;;;;;;2.91;76.73;99621.50;1726117;83;21042;-83
2022/01/20 02:34:32;;;;;;;24.82;14.40;;;;;;;2.94;76.65;99622.45;1726336;83;21623;-83
2022/01/20 02:37:03;;;;;;;34.23;19.95;;;;;;;2.96;76.25;99627.28;1725025;83;21715;-82
2022/01/20 02:44:53;;;;;;;31.75;13.70;;;;;;;2.91;75.52;99618.91;1726272;83;21121;-83
2022/01/20 02:47:27;;;;;;;24.07;11.45;;;;;;;2.87;75.19;99607.02;1726477;83;21070;-83
2022/01/20 02:49:54;;;;;;;15.80;3.45;;;;;;;2.79;75.01;99609.33;1726566;83;21760;-83
2022/01/20 02:52:22;;;;;;;15.78;5.72;;;;;;;2.72;74.73;99591.73;1726267;83;21159;-84
2022/01/20 02:54:50;;;;;;;36.77;16.82;;;;;;;2.61;74.67;99593.05;1726378;83;21527;-84
2022/01/20 02:57:18;;;;;;;23.35;11.00;;;;;;;2.46;74.48;99599.44;1726114;82;21105;-82
2022/01/20 02:59:45;;;;;;;14.43;4.45;;;;;;;2.30;74.42;99603.13;1726239;83;21060;-83
2022/01/20 03:02:11;;;;;;;16.42;6.45;;;;;;;2.18;74.52;99604.35;1726234;83;21737;-83
2022/01/20 03:04:38;;;;;;;20.55;7.20;;;;;;;2.10;74.69;99601.06;1726174;83;21089;-83
2022/01/20 03:07:07;;;;;;;18.60;6.58;;;;;;;2.15;74.84;99606.42;1725373;83;21073;-83
2022/01/20 03:09:34;;;;;;;19.52;6.87;;;;;;;2.20;74.97;99619.19;1726148;83;21093;-83
2022/01/20 03:12:01;;;;;;;28.12;11.63;;;;;;;2.26;74.97;99615.95;1726204;83;21297;-84
2022/01/20 03:14:34;;;;;;;31.02;14.28;;;;;;;2.27;74.93;99610.82;1719720;82;21768;-84
2022/01/20 03:16:59;;;;;;;30.05;11.80;;;;;;;2.23;74.89;99600.23;1716339;83;21069;-84
2022/01/20 03:19:28;;;;;;;23.60;9.58;;;;;;;2.15;75.06;99589.55;1716416;82;21112;-84
2022/01/20 03:21:56;;;;;;;30.10;7.80;;;;;;;2.25;75.12;99589.49;1716371;82;21054;-83
2022/01/20 03:24:23;;;;;;;29.30;6.33;;;;;;;2.24;74.99;99594.23;1717135;82;21643;-83
2022/01/20 03:26:50;;;;;;;17.60;3.20;;;;;;;2.13;74.79;99592.08;1717633;83;22357;-84
2022/01/20 03:29:18;;;;;;;17.77;6.47;;;;;;;2.03;74.75;99582.59;1688017;83;22632;-84
2022/01/20 03:31:45;;;;;;;17.85;5.60;;;;;;;1.96;74.76;99571.06;1717609;83;21086;-84
2022/01/20 03:34:12;;;;;;;28.85;9.23;;;;;;;1.90;74.68;99587.27;1717382;82;21647;-83
2022/01/20 03:36:38;;;;;;;23.38;6.87;;;;;;;1.86;74.69;99588.36;1717346;83;21277;-84
2022/01/20 03:39:09;;;;;;;19.30;4.60;;;;;;;1.85;74.77;99591.38;1717020;82;21070;-83
2022/01/20 03:41:36;;;;;;;14.78;3.90;;;;;;;1.88;74.76;99592.81;1717440;82;20999;-84
2022/01/20 03:44:03;;;;;;;21.85;6.45;;;;;;;1.91;74.89;99596.80;1717750;83;21639;-83
2022/01/20 03:46:30;;;;;;;15.45;4.17;;;;;;;1.90;74.85;99591.16;1717829;83;21571;-83
2022/01/20 03:49:07;;;;;;;27.35;8.68;;;;;;;1.81;74.79;99590.78;1717977;83;21329;-83
2022/01/20 03:51:25;;;;;;;28.27;10.05;;;;;;;1.73;74.97;99609.05;1715550;82;21834;-83
2022/01/20 03:53:53;;;;;;;33.78;8.08;;;;;;;1.71;75.47;99609.39;1718043;83;21290;-82
2022/01/20 03:56:24;;;;;;;37.17;17.75;;;;;;;1.65;75.76;99614.30;1717826;83;21026;-82
2022/01/20 03:58:50;;;;;;;47.30;19.17;;;;;;;1.57;76.35;99623.05;1717658;83;21042;-82
2022/01/20 04:05:17;;;;;;;27.20;12.10;;;;;;;1.45;77.33;99606.57;1717136;83;21563;-82
2022/01/20 04:07:43;;;;;;;31.87;13.18;;;;;;;1.23;77.63;99618.13;1717336;83;21078;-82
2022/01/20 04:10:10;;;;;;;32.63;13.78;;;;;;;1.19;78.04;99614.93;1717660;83;21065;-82
2022/01/20 04:12:37;;;;;;;59.90;25.45;;;;;;;1.18;78.27;99609.25;1717934;83;21000;-83
2022/01/20 04:15:08;;;;;;;76.45;33.98;;;;;;;1.13;78.16;99593.09;1717893;83;21540;-81
2022/01/20 04:17:40;;;;;;;63.45;28.65;;;;;;;1.06;78.11;99596.65;1688701;83;21047;-82
2022/01/20 04:20:10;;;;;;;20.77;8.35;;;;;;;0.95;78.07;99595.75;1717821;83;21022;-81
2022/01/20 04:22:39;;;;;;;14.03;6.12;;;;;;;0.89;78.06;99604.55;1717370;82;21575;-82
2022/01/20 04:25:08;;;;;;;13.78;5.08;;;;;;;0.84;78.00;99586.61;1717036;83;22155;-82
2022/01/20 04:27:34;;;;;;;17.42;9.75;;;;;;;0.80;77.92;99588.59;1717784;83;21116;-81
2022/01/20 04:30:01;;;;;;;20.30;13.93;;;;;;;0.76;77.83;99586.69;1717429;83;21724;-81
2022/01/20 04:32:30;;;;;;;11.85;6.00;;;;;;;0.76;77.82;99591.45;1717377;83;21341;-82
2022/01/20 04:34:56;;;;;;;16.52;6.65;;;;;;;0.77;77.72;99593.66;1717517;82;21046;-82
2022/01/20 04:37:23;;;;;;;9.55;4.10;;;;;;;0.75;77.64;99594.88;1717556;83;21679;-83
2022/01/20 04:39:51;;;;;;;14.35;4.05;;;;;;;0.76;77.59;99600.52;1717616;83;21057;-83
2022/01/20 04:42:21;;;;;;;18.15;5.45;;;;;;;0.80;77.50;99595.06;1717336;82;21537;-84
2022/01/20 04:44:54;;;;;;;15.48;6.47;;;;;;;0.82;77.32;99584.36;1717383;83;21058;-84
2022/01/20 04:47:34;;;;;;;23.87;7.90;;;;;;;0.86;77.19;99586.69;1716438;83;21066;-83
2022/01/20 04:58:15;;;;;;;9.03;2.92;;;;;;;1.15;76.75;99585.40;1717081;83;21042;-84
2022/01/20 05:00:43;;;;;;;15.53;3.67;;;;;;;1.30;76.66;99592.95;1716839;83;21102;-82
2022/01/20 05:03:13;;;;;;;9.88;4.25;;;;;;;1.42;76.49;99601.24;1730686;81;21038;-82
2022/01/20 05:05:39;;;;;;;12.85;4.58;;;;;;;1.54;76.35;99608.69;1746853;80;21496;-83
2022/01/20 05:08:08;;;;;;;14.47;4.87;;;;;;;1.62;76.15;99608.59;1740544;80;21129;-78
2022/01/20 05:10:39;;;;;;;10.30;4.58;;;;;;;1.72;76.10;99607.26;1741874;80;21101;-79
2022/01/20 05:13:10;;;;;;;11.10;3.83;;;;;;;1.77;76.30;99610.06;1745748;82;21066;-75
2022/01/20 05:15:33;;;;;;;10.68;4.65;;;;;;;1.75;76.91;99630.33;1752648;80;21140;-76
2022/01/20 05:18:04;;;;;;;13.88;2.87;;;;;;;1.61;78.97;99627.55;1754173;81;21574;-75
2022/01/20 05:20:37;;;;;;;12.90;4.25;;;;;;;1.52;79.12;99629.75;1753609;80;21779;-77
2022/01/20 05:23:09;;;;;;;12.97;4.83;;;;;;;1.41;78.54;99614.13;1754930;80;21058;-77
2022/01/20 05:25:43;;;;;;;12.33;4.28;;;;;;;1.30;78.81;99624.06;1754514;80;21069;-77
2022/01/20 05:28:11;;;;;;;15.93;10.60;;;;;;;1.26;79.10;99618.24;1753925;80;21674;-76
2022/01/20 05:30:40;;;;;;;16.70;10.78;;;;;;;1.19;79.18;99610.63;1753860;80;21528;-77
2022/01/20 05:33:08;;;;;;;10.32;3.50;;;;;;;1.08;79.13;99610.56;1754771;80;21777;-78
2022/01/20 05:35:34;;;;;;;9.43;6.15;;;;;;;1.00;79.13;99601.57;1754904;80;21081;-78
2022/01/20 05:38:04;;;;;;;9.93;2.42;;;;;;;0.94;79.19;99600.47;1754716;80;21559;-81
2022/01/20 05:40:29;;;;;;;9.70;3.90;;;;;;;0.86;79.03;99586.27;1755005;80;21544;-80
2022/01/20 05:42:56;;;;;;;15.53;6.22;;;;;;;0.80;78.93;99586.42;1755472;81;21066;-75
2022/01/20 05:45:24;;;;;;;8.35;4.03;;;;;;;0.72;78.90;99583.06;1755032;80;21715;-82
2022/01/20 05:48:00;;;;;;;8.68;3.58;;;;;;;0.65;78.75;99590.07;1720616;81;21003;-79
2022/01/20 05:50:21;;;;;;;8.40;3.10;;;;;;;0.63;78.84;99587.83;1753221;80;21097;-80
2022/01/20 05:52:51;;;;;;;9.25;4.72;;;;;;;0.67;78.94;99595.33;1755372;81;21062;-78
2022/01/20 05:55:19;;;;;;;10.38;4.28;;;;;;;0.73;78.96;99590.03;1754672;80;21074;-79
2022/01/20 05:57:46;;;;;;;7.08;2.90;;;;;;;0.81;78.91;99595.56;1755057;80;21738;-78
2022/01/20 06:00:25;;;;;;;3.77;1.87;;;;;;;0.86;80.89;99594.45;1755203;80;21053;-79
2022/01/20 06:05:45;;;;;;;8.38;2.87;;;;;;;0.86;79.06;99595.33;1754546;80;21544;-77
2022/01/20 06:08:09;;;;;;;9.73;3.35;;;;;;;0.75;78.38;99582.30;1753967;80;21086;-78
2022/01/20 06:10:37;;;;;;;5.92;2.20;;;;;;;0.65;77.99;99573.66;1754936;80;21283;-78
2022/01/20 06:13:05;;;;;;;4.67;2.27;;;;;;;0.50;77.79;99576.02;1754155;80;21105;-77
2022/01/20 06:15:33;;;;;;;6.30;2.15;;;;;;;0.40;77.76;99576.84;1754189;80;21045;-78
2022/01/20 06:18:03;;;;;;;6.28;2.17;;;;;;;0.26;77.72;99583.93;1754279;80;21144;-77
2022/01/20 06:20:30;;;;;;;6.70;2.87;;;;;;;0.16;77.82;99571.84;1754505;80;21077;-77
2022/01/20 06:22:57;;;;;;;8.33;2.30;;;;;;;0.12;77.91;99561.30;1753550;81;21753;-78
2022/01/20 06:25:24;;;;;;;6.55;2.05;;;;;;;0.07;77.92;99555.01;1752974;81;20992;-78
2022/01/20 06:27:50;;;;;;;7.60;2.22;;;;;;;0.02;77.96;99559.06;1753187;81;21003;-77
2022/01/20 06:30:17;;;;;;;3.72;1.87;;;;;;;0.00;78.12;99556.44;1753480;81;21046;-77
2022/01/20 06:32:43;;;;;;;6.37;2.67;;;;;;;-0.05;77.96;99555.31;1742864;82;21082;-77
2022/01/20 06:35:10;;;;;;;10.82;1.87;;;;;;;-0.09;77.96;99561.16;1742650;81;21627;-78
2022/01/20 06:37:42;;;;;;;12.03;2.52;;;;;;;-0.08;78.08;99570.68;1718427;82;21050;-77
2022/01/20 06:40:08;;;;;;;7.80;2.35;;;;;;;-0.04;78.37;99568.72;1742424;81;21074;-77
2022/01/20 06:42:35;;;;;;;5.78;2.17;;;;;;;0.03;78.91;99579.84;1743224;82;21062;-78
2022/01/20 06:45:07;;;;;;;10.32;2.00;;;;;;;0.09;79.07;99577.95;1742882;82;21091;-77
2022/01/20 06:47:34;;;;;;;5.72;1.60;;;;;;;0.17;79.15;99602.10;1742920;82;21796;-77
2022/01/20 06:50:04;;;;;;;8.40;1.90;;;;;;;0.29;79.76;99613.44;1742818;81;21377;-77
2022/01/20 06:52:31;;;;;;;6.05;1.72;;;;;;;0.26;81.54;99612.41;1718529;82;21062;-77
2022/01/20 06:54:58;;;;;;;6.45;1.60;;;;;;;0.19;81.91;99610.82;1742954;82;21118;-77
2022/01/20 06:57:26;;;;;;;5.33;1.75;;;;;;;0.16;81.82;99610.66;1742853;82;21116;-77
2022/01/20 06:59:53;;;;;;;7.58;2.00;;;;;;;0.18;82.11;99615.92;1742884;82;21760;-77
2022/01/20 07:02:20;;;;;;;7.83;2.27;;;;;;;0.22;82.32;99616.54;1742860;81;21101;-78
2022/01/20 07:04:47;;;;;;;8.03;2.58;;;;;;;0.23;82.36;99612.28;1742832;81;21101;-78
2022/01/20 07:07:14;;;;;;;7.33;1.95;;;;;;;0.28;82.57;99619.83;1743145;81;21043;-77
2022/01/20 07:09:43;;;;;;;5.75;1.98;;;;;;;0.30;82.60;99615.61;1742670;82;21071;-77
2022/01/20 07:12:10;;;;;;;6.25;2.67;;;;;;;0.30;82.76;99633.34;1742959;82;21756;-77
2022/01/20 07:14:38;;;;;;;6.65;2.33;;;;;;;0.31;82.71;99631.63;1742708;82;21082;-77
2022/01/20 07:17:05;;;;;;;5.22;2.30;;;;;;;0.30;83.14;99632.43;1743071;82;21067;-77
2022/01/20 07:19:32;;;;;;;4.17;2.20;;;;;;;0.31;83.52;99636.81;1742875;81;21082;-77
2022/01/20 07:22:00;;;;;;;4.50;2.12;;;;;;;0.33;83.14;99641.23;1742816;82;21591;-77
2022/01/20 07:24:31;;;;;;;7.35;2.30;;;;;;;0.36;82.94;99646.57;1743120;82;22682;-77
2022/01/20 07:26:55;;;;;;;5.83;2.42;;;;;;;0.40;82.75;99661.84;1742708;81;21000;-77
2022/01/20 07:29:21;;;;;;;4.85;1.85;;;;;;;0.41;82.69;99676.55;1743193;82;21054;-77
2022/01/20 07:31:48;;;;;;;10.28;1.70;;;;;;;0.28;86.64;99678.06;1743178;81;21122;-77
2022/01/20 07:34:15;;;;;;;5.20;2.05;;;;;;;0.12;87.72;99682.49;1742916;82;20980;-77
2022/01/20 07:36:41;;;;;;;6.50;1.95;;;;;;;-0.04;87.64;99694.17;1743079;81;22558;-76
2022/01/20 07:39:08;;;;;;;5.72;2.05;;;;;;;-0.20;87.04;99684.77;1742805;82;21413;-77
2022/01/20 07:41:34;;;;;;;2.67;1.62;;;;;;;-0.20;86.05;99683.48;1742897;82;21070;-77
2022/01/20 07:44:01;;;;;;;4.92;1.75;;;;;;;-0.26;85.67;99692.23;1742975;82;21058;-77
2022/01/20 07:46:28;;;;;;;2.77;1.62;;;;;;;-0.36;84.91;99698.60;1743081;82;21046;-77
2022/01/20 07:48:54;;;;;;;3.55;1.27;;;;;;;-0.38;84.52;99695.05;1744362;82;21812;-77
2022/01/20 07:51:21;;;;;;;4.80;1.50;;;;;;;-0.34;84.31;99694.39;1743063;82;21054;-77
2022/01/20 07:53:47;;;;;;;7.35;1.70;;;;;;;-0.37;83.75;99707.19;1743067;82;21054;-77
2022/01/20 07:56:14;;;;;;;3.83;2.05;;;;;;;-0.43;83.44;99703.87;1743165;81;21050;-77
2022/01/20 07:58:41;;;;;;;3.17;1.95;;;;;;;-0.41;83.69;99715.19;1743039;82;21054;-77
2022/01/20 08:01:08;;;;;;;4.50;1.70;;;;;;;-0.31;83.71;99724.30;1743341;82;21759;-77
2022/01/20 08:03:34;;;;;;;5.80;2.10;;;;;;;-0.22;83.62;99726.07;1743047;82;21399;-77
2022/01/20 08:06:03;;;;;;;5.08;2.20;;;;;;;-0.22;83.88;99741.59;1718827;82;21588;-77
2022/01/20 08:08:30;;;;;;;6.65;2.37;;;;;;;-0.18;84.01;99741.76;1742970;81;21066;-77
2022/01/20 08:10:57;;;;;;;5.17;2.50;;;;;;;-0.21;83.79;99742.09;1743130;82;21082;-77
2022/01/20 08:13:23;;;;;;;5.05;2.50;;;;;;;-0.29;83.36;99736.90;1743202;82;21754;-77
2022/01/20 08:15:50;;;;;;;5.10;2.45;;;;;;;-0.38;82.88;99745.47;1742760;82;21528;-77
2022/01/20 08:18:17;;;;;;;6.22;2.33;;;;;;;-0.49;82.51;99738.84;1742945;81;21552;-77
2022/01/20 08:20:44;;;;;;;5.67;2.37;;;;;;;-0.56;82.26;99747.08;1742960;82;21121;-77
2022/01/20 08:23:10;;;;;;;3.92;2.10;;;;;;;-0.63;82.03;99745.47;1743086;82;21302;-77
2022/01/20 08:25:37;;;;;;;8.48;2.58;;;;;;;-0.65;82.22;99735.88;1742962;81;22246;-77
2022/01/20 08:28:04;;;;;;;5.30;2.40;;;;;;;-0.69;82.26;99739.98;1743127;81;21042;-77
2022/01/20 08:30:31;;;;;;;7.70;2.77;;;;;;;-0.69;81.87;99738.70;1742965;82;21613;-77
2022/01/20 08:32:59;;;;;;;6.50;2.60;;;;;;;-0.70;81.46;99743.36;1742923;82;21135;-77
2022/01/20 08:35:27;;;;;;;6.87;2.17;;;;;;;-0.70;81.09;99742.48;1742851;81;21035;-78
2022/01/20 08:37:54;;;;;;;6.58;2.25;;;;;;;-0.68;80.89;99740.45;1742854;82;21090;-77
2022/01/20 08:40:22;;;;;;;5.12;2.37;;;;;;;-0.61;80.75;99738.69;1742724;81;21054;-77
2022/01/20 08:42:49;;;;;;;8.23;3.10;;;;;;;-0.57;80.50;99726.81;1742908;82;21110;-77
2022/01/20 08:45:18;;;;;;;7.17;2.17;;;;;;;-0.49;80.51;99724.25;1742933;82;21066;-77
2022/01/20 08:47:44;;;;;;;4.70;2.00;;;;;;;-0.32;80.59;99732.88;1743306;82;21058;-77
2022/01/20 08:50:11;;;;;;;9.03;2.65;;;;;;;-0.16;80.24;99724.20;1743209;81;21821;-78
2022/01/20 08:52:38;;;;;;;6.53;2.77;;;;;;;-0.05;79.85;99734.69;1743009;82;21058;-78
2022/01/20 08:55:06;;;;;;;8.00;2.47;;;;;;;0.08;79.39;99728.86;1742994;82;21058;-77
2022/01/20 08:57:32;;;;;;;4.10;1.82;;;;;;;0.08;81.08;99728.86;1742838;81;21082;-77
2022/01/20 08:59:59;;;;;;;6.80;2.25;;;;;;;-0.02;78.28;99736.15;1742828;82;21027;-77
2022/01/20 09:02:25;;;;;;;5.20;2.22;;;;;;;-0.13;77.72;99746.36;1742853;82;21827;-77
2022/01/20 09:04:52;;;;;;;6.72;2.22;;;;;;;-0.20;77.48;99758.07;1742601;82;21039;-77
2022/01/20 09:07:20;;;;;;;3.70;1.65;;;;;;;-0.26;77.17;99753.88;1743226;82;21085;-77
2022/01/20 09:09:48;;;;;;;5.20;1.52;;;;;;;-0.37;77.51;99760.60;1742746;82;21379;-77
2022/01/20 09:15:27;;;;;;;6.05;1.90;;;;;;;-0.50;77.59;99764.23;1742953;82;21121;-77
2022/01/20 09:17:31;;;;;;;7.33;2.47;;;;;;;-0.51;76.72;99767.61;1742605;82;21054;-77
2022/01/20 09:20:00;;;;;;;6.85;2.15;;;;;;;-0.45;76.68;99773.09;1742917;82;21089;-78
2022/01/20 09:22:29;;;;;;;5.37;2.17;;;;;;;-0.24;76.86;99774.23;1742715;82;21158;-77
2022/01/20 09:24:55;;;;;;;4.33;1.50;;;;;;;0.00;77.30;99764.69;1742902;81;21058;-77
2022/01/20 09:27:22;;;;;;;6.15;1.70;;;;;;;0.08;76.07;99771.55;1743250;82;22025;-77
2022/01/20 09:29:48;;;;;;;2.80;1.70;;;;;;;0.09;75.66;99781.95;1742821;82;21058;-78
2022/01/20 09:32:17;;;;;;;5.40;1.92;;;;;;;0.18;75.57;99778.54;1742914;81;21046;-78
2022/01/20 09:34:43;;;;;;;8.40;2.77;;;;;;;0.34;75.30;99772.45;1742785;82;21585;-78
2022/01/20 09:37:12;;;;;;;6.00;2.22;;;;;;;0.38;75.00;99774.79;1718636;82;21616;-77
2022/01/20 09:39:40;;;;;;;7.42;2.77;;;;;;;0.39;74.92;99779.13;1742830;82;21791;-78
2022/01/20 09:42:07;;;;;;;8.30;2.95;;;;;;;0.44;74.54;99778.97;1742796;82;21003;-78
2022/01/20 09:44:34;;;;;;;9.68;2.77;;;;;;;0.48;74.27;99777.00;1742622;82;21050;-78
2022/01/20 09:47:01;;;;;;;5.80;2.20;;;;;;;0.53;74.41;99782.02;1742898;82;21592;-78
2022/01/20 09:49:27;;;;;;;10.00;2.12;;;;;;;0.64;73.98;99774.78;1742956;82;21105;-78
2022/01/20 09:51:54;;;;;;;5.87;2.27;;;;;;;0.74;73.31;99773.09;1742838;82;21763;-78
2022/01/20 09:54:21;;;;;;;3.02;1.40;;;;;;;0.74;73.98;99772.22;1742780;82;21047;-78
2022/01/20 09:56:47;;;;;;;3.75;2.15;;;;;;;0.71;73.10;99772.06;1743090;82;21039;-78
2022/01/20 09:59:14;;;;;;;7.80;1.30;;;;;;;0.77;72.57;99768.08;1742868;82;21062;-78
2022/01/20 10:01:48;;;;;;;4.45;1.52;;;;;;;1.16;72.95;99780.25;1742653;82;21074;-77
2022/01/20 10:04:29;;;;;;;9.20;1.87;;;;;;;1.60;72.53;99773.64;1742656;82;21798;-77
2022/01/20 10:06:59;;;;;;;12.03;1.90;;;;;;;1.55;76.47;99790.69;1742549;82;21759;-78
2022/01/20 10:09:34;;;;;;;8.38;1.87;;;;;;;1.03;79.75;99836.20;1743110;82;21078;-77
2022/01/20 10:12:01;;;;;;;6.60;1.62;;;;;;;0.60;83.31;99818.14;1743012;82;21107;-77
2022/01/20 10:14:45;;;;;;;4.08;1.65;;;;;;;0.48;84.14;99821.44;1742966;81;21423;-78
2022/01/20 10:17:29;;;;;;;2.62;1.20;;;;;;;0.31;86.69;99821.47;1746341;80;21859;-77
2022/01/20 10:20:01;;;;;;;7.80;1.30;;;;;;;0.04;87.58;99818.75;1747214;82;21078;-77
2022/01/20 10:22:28;;;;;;;6.53;1.40;;;;;;;-0.06;86.60;99825.14;1747274;82;21054;-77
2022/01/20 10:25:04;;;;;;;5.45;1.17;;;;;;;-0.15;88.25;99837.22;1747269;82;21152;-77
2022/01/20 10:27:33;;;;;;;4.33;1.25;;;;;;;-0.34;90.96;99837.02;1747013;80;21747;-77
2022/01/20 10:30:07;;;;;;;7.62;1.87;;;;;;;-0.54;90.73;99798.48;1747221;82;21741;-77
2022/01/20 10:32:49;;;;;;;4.40;1.70;;;;;;;-0.68;90.41;99811.52;1747479;81;21062;-77
2022/01/20 10:35:18;;;;;;;7.03;2.08;;;;;;;-0.90;89.78;99783.64;1747089;82;21121;-77
2022/01/20 10:38:11;;;;;;;6.85;2.10;;;;;;;-0.94;89.25;99810.09;1747144;82;21070;-77
2022/01/20 10:40:31;;;;;;;4.65;1.95;;;;;;;-1.03;88.88;99801.45;1746281;82;21110;-77
2022/01/20 10:42:58;;;;;;;7.65;1.98;;;;;;;-1.12;88.32;99803.51;1746984;82;21745;-77
2022/01/20 10:45:30;;;;;;;9.10;2.70;;;;;;;-1.17;87.72;99801.06;1718870;82;21050;-77
2022/01/20 10:48:01;;;;;;;8.23;2.22;;;;;;;-1.18;87.21;99801.88;1747295;82;21082;-77
2022/01/20 10:50:30;;;;;;;7.28;2.27;;;;;;;-1.08;86.80;99802.87;1747188;82;21639;-77
2022/01/20 10:52:57;;;;;;;7.90;2.70;;;;;;;-0.84;86.11;99790.84;1719666;82;21149;-77
2022/01/20 10:55:34;;;;;;;7.47;2.60;;;;;;;-0.33;85.67;99792.27;1747188;82;22174;-77
2022/01/20 10:58:17;;;;;;;4.70;2.42;;;;;;;0.01;84.74;99795.33;1747179;82;21066;-77
2022/01/20 11:00:48;;;;;;;6.72;2.30;;;;;;;0.10;83.20;99795.39;1747352;80;21046;-77
2022/01/20 11:03:15;;;;;;;4.53;1.77;;;;;;;0.10;81.82;99799.68;1746938;82;21552;-77
2022/01/20 11:05:44;;;;;;;5.00;1.60;;;;;;;-0.03;80.26;99826.61;1747533;82;21100;-77
2022/01/20 11:08:11;;;;;;;6.72;1.75;;;;;;;-0.22;79.32;99821.77;1747517;82;21749;-77
2022/01/20 11:10:42;;;;;;;10.55;2.22;;;;;;;-0.29;79.09;99813.19;1747452;81;21726;-77
2022/01/20 11:13:11;;;;;;;3.95;1.70;;;;;;;-0.21;78.91;99802.86;1747431;80;21125;-77
2022/01/20 11:15:40;;;;;;;5.15;1.98;;;;;;;0.01;78.86;99803.97;1747443;82;21138;-77
2022/01/20 11:18:08;;;;;;;9.30;1.62;;;;;;;0.30;79.07;99806.77;1747669;81;21110;-77
2022/01/20 11:20:45;;;;;;;5.15;2.05;;;;;;;0.46;78.44;99823.06;1747094;82;21783;-77
2022/01/20 11:23:12;;;;;;;6.42;1.92;;;;;;;0.44;79.17;99816.92;1747447;82;21043;-77
2022/01/20 11:25:41;;;;;;;3.87;1.85;;;;;;;0.23;81.66;99820.61;1747186;82;21109;-77
2022/01/20 11:28:14;;;;;;;7.58;1.85;;;;;;;-0.01;81.37;99814.64;1746752;82;21038;-77
2022/01/20 11:30:42;;;;;;;6.87;2.00;;;;;;;-0.29;80.11;99805.84;1746931;81;21066;-77
2022/01/20 11:33:12;;;;;;;7.62;2.45;;;;;;;-0.51;79.07;99803.38;1747407;82;21778;-77
2022/01/20 11:35:50;;;;;;;8.40;2.62;;;;;;;-0.65;78.92;99797.48;1747085;82;21086;-77
2022/01/20 11:38:19;;;;;;;5.15;2.60;;;;;;;-0.71;78.92;99798.45;1747520;82;21571;-77
2022/01/20 11:40:55;;;;;;;3.87;1.92;;;;;;;-0.79;78.68;99791.95;1747666;81;21632;-77
2022/01/20 11:43:42;;;;;;;8.00;2.25;;;;;;;-0.82;78.53;99795.28;1747557;82;21058;-77
2022/01/20 11:46:15;;;;;;;10.28;2.75;;;;;;;-0.78;78.51;99802.80;1747366;82;21929;-77
2022/01/20 11:48:58;;;;;;;9.50;2.95;;;;;;;-0.71;78.49;99795.87;1746895;81;21038;-77
2022/01/20 11:51:48;;;;;;;7.87;3.62;;;;;;;-0.53;78.74;99805.00;1747460;82;20994;-77
2022/01/20 11:54:28;;;;;;;5.78;2.40;;;;;;;-0.04;79.23;99809.30;1747277;82;21054;-78
2022/01/20 11:57:14;;;;;;;5.35;1.90;;;;;;;0.54;79.19;99808.38;1747125;81;21082;-77
2022/01/20 11:59:51;;;;;;;5.35;2.37;;;;;;;0.95;78.63;99806.04;1747169;80;22663;-77
2022/01/20 12:02:38;;;;;;;4.78;2.00;;;;;;;1.15;77.56;99810.47;1747120;81;21105;-78
2022/01/20 12:05:29;;;;;;;3.80;2.15;;;;;;;1.42;77.60;99820.77;1747310;82;21074;-77
2022/01/20 12:08:18;;;;;;;8.25;2.02;;;;;;;1.68;77.48;99832.34;1747122;81;21666;-77
2022/01/20 12:10:45;;;;;;;7.15;2.05;;;;;;;1.74;77.23;99836.09;1746138;82;22481;-77
2022/01/20 12:13:16;;;;;;;4.85;2.08;;;;;;;1.57;75.49;99832.27;1747268;82;22522;-78
2022/01/20 12:15:52;;;;;;;7.15;2.37;;;;;;;1.28;74.55;99830.51;1747163;82;21072;-78
2022/01/20 12:18:19;;;;;;;5.75;2.37;;;;;;;1.16;74.62;99830.41;1719124;82;21066;-78
2022/01/20 12:20:45;;;;;;;8.90;2.10;;;;;;;1.12;74.54;99837.95;1746900;81;21699;-79
2022/01/20 12:23:12;;;;;;;5.53;1.77;;;;;;;1.02;74.96;99837.04;1747270;82;21042;-77
2022/01/20 12:25:39;;;;;;;7.20;1.50;;;;;;;0.64;79.26;99843.41;1747117;82;21803;-78
2022/01/20 12:28:10;;;;;;;4.60;1.42;;;;;;;0.21;78.80;99859.34;1747179;82;21046;-77
2022/01/20 12:30:47;;;;;;;3.42;1.72;;;;;;;-0.11;78.12;99855.96;1718695;82;21113;-77
2022/01/20 12:33:15;;;;;;;3.92;1.60;;;;;;;-0.24;79.64;99847.95;1745143;80;21103;-77
2022/01/20 12:35:48;;;;;;;5.72;2.40;;;;;;;-0.26;78.80;99857.73;1745449;82;21062;-77
2022/01/20 12:38:33;;;;;;;6.78;2.25;;;;;;;-0.30;78.95;99868.31;1740232;82;21873;-77
2022/01/20 12:41:09;;;;;;;7.72;2.33;;;;;;;-0.33;78.95;99867.26;1747022;80;21046;-77
2022/01/20 12:43:38;;;;;;;8.78;2.95;;;;;;;-0.38;79.09;99864.41;1747348;82;21173;-77
2022/01/20 12:46:07;;;;;;;6.42;3.10;;;;;;;-0.34;79.37;99877.09;1747172;82;21166;-77